메인 페이지
METAR-TAF:

METAR-TAF

공항 :

시즈오카, 일본

시즈오카 공항

위도: 34-47-46N, 경도: 138-11-22E, 고도: 132m

현재 날씨관측

예보는 56분 전, 04:00시(UTC)에 발표되었습니다.
서남서15kt
온도 23°C
습도 83%
기압 998 hPa
시정 10km 이상
고도 300ft 상공 구름 조금
고도 1500ft 상공 구름 보통
구름 많음

METAR: RJNS 250400Z 25015KT 9999 FEW003 SCT015 BKN/// 23/20 Q0998

시각: 13:56 (04:56 UTC)

예보

예보는 5 시간 50분 전, 23:06시(UTC)에 발표되었습니다.
예보 대상 시간: 25일 00시부터 26일 06시까지 (UTC)
22kt, 순간 최대 풍속 32kt
시정 10km 이상
고도 1500ft 상공 구름 조금
고도 3000ft 상공 구름 많음
일시적
25일 00시부터 25일 02시까지 (UTC)
시정: 3000m
고도 300ft 상공 구름 조금
고도 500ft 상공 구름 많음
소나기, 박무
전환 중
25일 21시부터 26일 00시까지 (UTC)
남동9kt

TAF: RJNS 242306Z 2500/2606 26022G32KT 9999 FEW015 BKN030 TEMPO 2500/2502 3000 SHRA BR FEW003 BKN005 BECMG 2521/2600 13009KT

4,000개 이상의 공항 관측 자료 및 예보 (METAR 및 TAF 보고).

지도상에서 검색 가능한 기상관측소가 노란 점과 빨간 점으로 표시되어 있습니다.

기상관측소 명을 보려면 표시 위로 마우스를 이동하세요.

날씨 관측과 예보를 보려면 클릭하세요.

지도 변경 : 확대하려면 엑스 표시가 있는 녹색 버튼, 축소하려면 빼기 표시가 있는 녹색 버튼, 다음 페이지의 지도를 보려면 녹색 화살표를 클릭하세요.


METAR-TAF: